createdAt,value
2017-08-14T00:03:13.613Z,1024.5
2017-08-14T00:08:18.684Z,1024.5
2017-08-14T00:13:24.423Z,1024.5
2017-08-14T00:18:30.164Z,1024.5
2017-08-14T00:23:35.569Z,1024.6
2017-08-14T00:28:40.637Z,1024.6
2017-08-14T00:33:46.374Z,1024.6
2017-08-14T00:38:52.449Z,1024.6
2017-08-14T00:43:58.197Z,1024.6
2017-08-14T00:49:03.935Z,1024.6
2017-08-14T00:54:09.671Z,1024.6
2017-08-14T00:59:15.078Z,1024.6
2017-08-14T01:04:20.487Z,1024.5
2017-08-14T01:09:25.886Z,1024.5
2017-08-14T01:14:31.623Z,1024.5
2017-08-14T01:19:37.692Z,1024.5
2017-08-14T01:24:42.759Z,1024.6
2017-08-14T01:29:48.497Z,1024.5
2017-08-14T01:34:53.230Z,1024.5
2017-08-14T01:39:58.967Z,1024.5
2017-08-14T01:45:04.702Z,1024.5
2017-08-14T01:50:10.770Z,1024.5
2017-08-14T01:55:16.843Z,1024.5
2017-08-14T02:00:22.581Z,1024.6
2017-08-14T02:05:28.318Z,1024.5
2017-08-14T02:10:33.055Z,1024.5
2017-08-14T02:15:38.455Z,1024.5
2017-08-14T02:20:43.190Z,1024.5
2017-08-14T02:25:48.591Z,1024.4
2017-08-14T02:30:53.990Z,1024.4
2017-08-14T02:35:59.722Z,1024.4
2017-08-14T02:41:05.469Z,1024.4
2017-08-14T02:46:10.524Z,1024.4
2017-08-14T02:51:16.260Z,1024.4
2017-08-14T02:56:21.325Z,1024.4
2017-08-14T03:01:27.396Z,1024.4
2017-08-14T03:06:32.807Z,1024.4
2017-08-14T03:11:38.869Z,1024.5
2017-08-14T03:16:44.601Z,1024.5
2017-08-14T03:21:50.007Z,1024.6
2017-08-14T03:26:56.076Z,1024.6
2017-08-14T03:32:01.473Z,1024.6
2017-08-14T03:37:06.205Z,1024.6
2017-08-14T03:42:11.940Z,1024.6
2017-08-14T03:47:17.671Z,1024.6
2017-08-14T03:52:23.070Z,1024.6
2017-08-14T03:57:29.141Z,1024.6
2017-08-14T04:02:35.212Z,1024.6
2017-08-14T04:07:40.947Z,1024.7
2017-08-14T04:12:46.682Z,1024.8
2017-08-14T04:17:52.754Z,1024.8
2017-08-14T04:22:58.491Z,1024.9
2017-08-14T04:28:03.559Z,1024.8
2017-08-14T04:33:09.634Z,1024.8
2017-08-14T04:38:15.034Z,1024.8
2017-08-14T04:43:21.106Z,1024.8
2017-08-14T04:48:26.510Z,1024.8
2017-08-14T04:53:31.911Z,1024.8
2017-08-14T04:58:36.979Z,1024.8
2017-08-14T05:03:43.048Z,1024.8
2017-08-14T05:08:48.784Z,1024.9
2017-08-14T05:13:54.523Z,1024.9
2017-08-14T05:19:00.595Z,1024.9
2017-08-14T05:24:06.338Z,1024.9
2017-08-14T05:29:12.077Z,1024.9
2017-08-14T05:34:18.151Z,1025
2017-08-14T05:39:23.890Z,1025
2017-08-14T05:44:29.630Z,1025.1
2017-08-14T05:49:35.701Z,1025
2017-08-14T05:54:41.443Z,1025.1
2017-08-14T05:59:46.516Z,1025.1
2017-08-14T06:04:52.592Z,1025.1
2017-08-14T06:09:57.995Z,1025.2
2017-08-14T06:15:03.404Z,1025.2
2017-08-14T06:20:09.144Z,1025.2
2017-08-14T06:25:14.882Z,1025.2
2017-08-14T06:30:20.292Z,1025.3
2017-08-14T06:35:26.037Z,1025.2
2017-08-14T06:40:31.784Z,1025.2
2017-08-14T06:45:37.191Z,1025.3
2017-08-14T06:50:42.950Z,1025.3
2017-08-14T06:55:48.695Z,1025.3
2017-08-14T07:00:54.469Z,1025.3
2017-08-14T07:06:00.212Z,1025.3
2017-08-14T07:11:05.634Z,1025.3
2017-08-14T07:16:11.717Z,1025.3
2017-08-14T07:21:17.796Z,1025.3
2017-08-14T07:26:23.540Z,1025.3
2017-08-14T07:31:29.283Z,1025.2
2017-08-14T07:36:35.365Z,1025.2
2017-08-14T07:41:40.445Z,1025.2
2017-08-14T07:46:45.189Z,1025.2
2017-08-14T07:51:50.942Z,1025.2
2017-08-14T07:56:57.025Z,1025.2
2017-08-14T08:02:02.798Z,1025.2
2017-08-14T08:07:08.553Z,1025.2
2017-08-14T08:12:14.319Z,1025.2
2017-08-14T08:17:19.763Z,1025.2
2017-08-14T08:22:24.845Z,1025.2
2017-08-14T08:27:30.603Z,1025.3
2017-08-14T08:32:35.693Z,1025.2
2017-08-14T08:37:40.785Z,1025.2
2017-08-14T08:42:46.430Z,1025.2
2017-08-14T08:47:52.531Z,1025.1
2017-08-14T08:52:58.303Z,1025.2
2017-08-14T08:58:03.731Z,1025.1
2017-08-14T09:03:09.165Z,1025.1
2017-08-14T09:08:14.935Z,1025.1
2017-08-14T09:13:20.715Z,1025
2017-08-14T09:18:26.816Z,1024.8
2017-08-14T09:23:32.245Z,1024.9
2017-08-14T09:28:38.014Z,1024.8
2017-08-14T09:33:43.785Z,1024.8
2017-08-14T09:38:49.551Z,1024.8
2017-08-14T09:43:55.655Z,1024.8
2017-08-14T09:49:01.423Z,1024.8
2017-08-14T09:54:06.849Z,1024.7
2017-08-14T09:59:12.948Z,1024.7
2017-08-14T10:04:18.412Z,1024.6
2017-08-14T10:09:24.182Z,1024.6
2017-08-14T10:14:29.605Z,1024.6
2017-08-14T10:19:35.367Z,1024.5
2017-08-14T10:24:40.787Z,1024.4
2017-08-14T10:29:46.546Z,1024.5
2017-08-14T10:34:51.637Z,1024.4
2017-08-14T10:39:57.772Z,1024.5
2017-08-14T10:45:03.859Z,1024.4
2017-08-14T10:50:08.607Z,1024.4
2017-08-14T10:55:14.024Z,1024.3
2017-08-14T11:00:20.188Z,1024.3
2017-08-14T11:05:25.604Z,1024.3
2017-08-14T11:10:31.686Z,1024.2
2017-08-14T11:15:36.763Z,1024.1
2017-08-14T11:20:41.509Z,1024.1
2017-08-14T11:25:47.254Z,1024
2017-08-14T11:30:52.326Z,1024
2017-08-14T11:35:58.073Z,1024
2017-08-14T11:41:03.148Z,1023.9
2017-08-14T11:46:08.559Z,1023.9
2017-08-14T11:51:13.300Z,1023.8
2017-08-14T11:56:18.715Z,1023.8
2017-08-14T12:01:24.129Z,1023.8
2017-08-14T12:06:30.213Z,1023.8
2017-08-14T12:11:35.961Z,1023.7
2017-08-14T12:16:41.374Z,1023.7
2017-08-14T12:21:46.453Z,1023.7
2017-08-14T12:26:51.863Z,1023.8
2017-08-14T12:31:57.276Z,1023.7
2017-08-14T12:37:03.357Z,1023.7
2017-08-14T12:42:07.763Z,1023.7
2017-08-14T12:47:12.836Z,1023.6
2017-08-14T12:52:18.248Z,1023.6
2017-08-14T12:57:23.326Z,1023.6
2017-08-14T13:02:28.737Z,1023.5
2017-08-14T13:07:34.142Z,1023.5
2017-08-14T13:12:39.223Z,1023.4
2017-08-14T13:17:45.324Z,1023.4
2017-08-14T13:22:51.406Z,1023.4
2017-08-14T13:27:57.150Z,1023.3
2017-08-14T13:33:03.230Z,1023.2
2017-08-14T13:38:08.305Z,1023.2
2017-08-14T13:43:14.052Z,1023.1
2017-08-14T13:48:20.132Z,1023.1
2017-08-14T13:53:25.541Z,1023
2017-08-14T13:58:31.004Z,1023
2017-08-14T14:03:37.082Z,1022.9
2017-08-14T14:08:42.826Z,1022.8
2017-08-14T14:13:48.602Z,1022.8
2017-08-14T14:18:54.344Z,1022.7
2017-08-14T14:23:59.752Z,1022.7
2017-08-14T14:29:04.836Z,1022.7
2017-08-14T14:34:10.257Z,1022.6
2017-08-14T14:39:15.668Z,1022.7
2017-08-14T14:44:21.099Z,1022.6
2017-08-14T14:49:25.820Z,1022.5
2017-08-14T14:54:30.897Z,1022.5
2017-08-14T14:59:36.644Z,1022.3
2017-08-14T15:04:42.394Z,1022.3
2017-08-14T15:09:47.802Z,1022.2
2017-08-14T15:14:53.221Z,1022.2
2017-08-14T15:19:59.299Z,1022.1
2017-08-14T15:25:05.378Z,1022.1
2017-08-14T15:30:11.458Z,1022.1
2017-08-14T15:35:16.865Z,1022.1
2017-08-14T15:40:22.277Z,1022.1
2017-08-14T15:45:28.355Z,1022.1
2017-08-14T15:50:33.434Z,1022
2017-08-14T15:55:39.174Z,1022
2017-08-14T16:00:44.256Z,1021.9
2017-08-14T16:05:50.007Z,1021.9
2017-08-14T16:10:55.751Z,1021.9
2017-08-14T16:16:01.492Z,1021.9
2017-08-14T16:21:07.238Z,1021.9
2017-08-14T16:26:12.314Z,1021.8
2017-08-14T16:31:18.058Z,1021.8
2017-08-14T16:36:24.140Z,1021.7
2017-08-14T16:41:29.548Z,1021.6
2017-08-14T16:46:34.619Z,1021.6
2017-08-14T16:51:40.364Z,1021.5
2017-08-14T16:56:45.776Z,1021.5
2017-08-14T17:01:51.185Z,1021.4
2017-08-14T17:06:56.606Z,1021.4
2017-08-14T17:12:02.351Z,1021.3
2017-08-14T17:17:07.426Z,1021.3
2017-08-14T17:22:11.837Z,1021.3
2017-08-14T17:27:17.594Z,1021.2
2017-08-14T17:32:22.677Z,1021.3
2017-08-14T17:37:28.090Z,1021.1
2017-08-14T17:42:34.184Z,1021.2
2017-08-14T17:47:40.270Z,1021.3
2017-08-14T17:52:45.686Z,1021.2
2017-08-14T17:57:51.100Z,1021.3
2017-08-14T18:02:56.851Z,1021.3
2017-08-14T18:08:02.262Z,1021.3
2017-08-14T18:13:07.687Z,1021.2
2017-08-14T18:18:12.762Z,1021.2
2017-08-14T18:23:18.846Z,1021.2
2017-08-14T18:28:23.589Z,1021.2
2017-08-14T18:33:28.665Z,1021.1
2017-08-14T18:38:34.416Z,1021.2
2017-08-14T18:43:40.161Z,1021.2
2017-08-14T18:48:45.572Z,1021.3
2017-08-14T18:53:50.990Z,1021.3
2017-08-14T18:58:56.073Z,1021.3
2017-08-14T19:04:01.825Z,1021.3
2017-08-14T19:09:18.965Z,1021.4
2017-08-14T19:14:25.149Z,1021.3
2017-08-14T19:19:30.223Z,1021.3
2017-08-14T19:24:35.972Z,1021.4
2017-08-14T19:29:41.721Z,1021.4
2017-08-14T19:34:47.474Z,1021.5
2017-08-14T19:39:52.574Z,1021.4
2017-08-14T19:44:58.325Z,1021.4
2017-08-14T19:50:03.737Z,1021.5
2017-08-14T19:55:09.150Z,1021.4
2017-08-14T20:00:14.926Z,1021.5
2017-08-14T20:05:20.681Z,1021.5
2017-08-14T20:10:26.095Z,1021.4
2017-08-14T20:15:31.568Z,1021.4
2017-08-14T20:20:37.316Z,1021.4
2017-08-14T20:25:43.068Z,1021.3
2017-08-14T20:30:48.482Z,1021.3
2017-08-14T20:35:53.573Z,1021.3
2017-08-14T20:40:59.326Z,1021.3
2017-08-14T20:46:05.406Z,1021.3
2017-08-14T20:51:10.152Z,1021.3
2017-08-14T20:56:16.462Z,1021.3
2017-08-14T21:01:22.229Z,1021.3
2017-08-14T21:06:27.657Z,1021.3
2017-08-14T21:11:33.399Z,1021.2
2017-08-14T21:16:38.828Z,1021.2
2017-08-14T21:21:43.571Z,1021.1
2017-08-14T21:26:49.320Z,1021
2017-08-14T21:31:55.074Z,1021
2017-08-14T21:37:00.814Z,1020.9
2017-08-14T21:42:06.557Z,1020.9
2017-08-14T21:47:11.973Z,1020.8
2017-08-14T21:52:16.711Z,1020.9
2017-08-14T21:57:21.782Z,1020.8
2017-08-14T22:02:26.543Z,1020.8
2017-08-14T22:07:31.949Z,1020.8
2017-08-14T22:12:37.698Z,1020.9
2017-08-14T22:17:42.438Z,1020.8
2017-08-14T22:22:47.839Z,1020.8
2017-08-14T22:27:52.240Z,1020.7
2017-08-14T22:32:57.643Z,1020.7
2017-08-14T22:38:03.723Z,1020.7
2017-08-14T22:43:08.798Z,1020.6
2017-08-14T22:48:14.541Z,1020.5
2017-08-14T22:53:20.616Z,1020.4
2017-08-14T22:58:26.354Z,1020.3
2017-08-14T23:03:32.094Z,1020.3
2017-08-14T23:08:37.834Z,1020.3
2017-08-14T23:13:43.914Z,1020.2
2017-08-14T23:18:49.320Z,1020.1
2017-08-14T23:23:53.384Z,1020.1
2017-08-14T23:28:59.461Z,1020
2017-08-14T23:34:05.537Z,1019.9
2017-08-14T23:39:11.280Z,1019.9
2017-08-14T23:44:17.025Z,1019.8
2017-08-14T23:49:22.759Z,1019.7
2017-08-14T23:54:28.835Z,1019.6
2017-08-14T23:59:34.576Z,1019.6
